createdAt,value
2018-03-16T00:01:10.855Z,11.57
2018-03-16T00:03:37.975Z,10.27
2018-03-16T00:06:05.173Z,9.93
2018-03-16T00:08:32.418Z,11.57
2018-03-16T00:10:59.754Z,12.77
2018-03-16T00:13:27.080Z,14.50
2018-03-16T00:15:54.321Z,10.13
2018-03-16T00:18:22.343Z,10.67
2018-03-16T00:20:49.666Z,11.30
2018-03-16T00:23:17.150Z,10.97
2018-03-16T00:25:44.264Z,12.53
2018-03-16T00:28:11.410Z,11.80
2018-03-16T00:30:39.848Z,9.17
2018-03-16T00:33:06.965Z,10.97
2018-03-16T00:35:34.761Z,10.23
2018-03-16T00:38:01.940Z,9.30
2018-03-16T00:40:30.266Z,9.13
2018-03-16T00:42:58.030Z,9.10
2018-03-16T00:45:25.173Z,8.60
2018-03-16T00:47:52.284Z,16.27
2018-03-16T00:50:23.465Z,12.00
2018-03-16T00:52:50.753Z,11.63
2018-03-16T00:55:17.876Z,11.00
2018-03-16T00:57:45.153Z,13.20
2018-03-16T01:00:12.333Z,11.23
2018-03-16T01:02:39.490Z,11.57
2018-03-16T01:05:06.709Z,7.80
2018-03-16T01:07:33.784Z,7.70
2018-03-16T01:10:04.637Z,7.17
2018-03-16T01:12:31.650Z,9.23
2018-03-16T01:14:58.872Z,18.47
2018-03-16T01:17:26.137Z,12.90
2018-03-16T01:19:57.213Z,8.60
2018-03-16T01:22:24.417Z,8.27
2018-03-16T01:24:51.615Z,6.67
2018-03-16T01:27:19.542Z,5.63
2018-03-16T01:29:51.306Z,6.90
2018-03-16T01:32:18.546Z,7.37
2018-03-16T01:34:45.805Z,6.53
2018-03-16T01:37:13.011Z,7.50
2018-03-16T01:39:41.499Z,12.57
2018-03-16T01:42:08.814Z,13.07
2018-03-16T01:44:36.067Z,10.50
2018-03-16T01:47:03.320Z,13.90
2018-03-16T01:49:37.710Z,11.67
2018-03-16T01:52:05.537Z,14.53
2018-03-16T01:54:32.644Z,20.40
2018-03-16T01:56:59.947Z,68.23
2018-03-16T01:59:31.483Z,39.63
2018-03-16T02:01:58.741Z,21.60
2018-03-16T02:04:26.425Z,11.23
2018-03-16T02:06:53.685Z,8.30
2018-03-16T02:09:21.227Z,8.57
2018-03-16T02:11:49.858Z,9.93
2018-03-16T02:14:17.137Z,11.40
2018-03-16T02:16:44.409Z,21.27
2018-03-16T02:19:18.129Z,36.53
2018-03-16T02:21:45.334Z,57.83
2018-03-16T02:24:13.503Z,65.67
2018-03-16T02:26:40.715Z,31.07
2018-03-16T02:29:07.949Z,8.70
2018-03-16T02:31:35.231Z,7.20
2018-03-16T02:34:02.452Z,7.93
2018-03-16T02:36:29.714Z,8.87
2018-03-16T02:39:01.182Z,8.63
2018-03-16T02:44:17.323Z,10.38
2018-03-16T02:46:44.614Z,11.80
2018-03-16T02:49:17.766Z,8.67
2018-03-16T02:51:44.995Z,12.23
2018-03-16T02:54:12.172Z,11.07
2018-03-16T02:56:39.347Z,13.00
2018-03-16T02:59:07.737Z,11.63
2018-03-16T03:01:34.916Z,11.40
2018-03-16T03:04:02.047Z,12.73
2018-03-16T03:06:29.200Z,12.03
2018-03-16T03:08:56.565Z,12.57
2018-03-16T03:11:23.835Z,16.40
2018-03-16T03:13:51.139Z,10.90
2018-03-16T03:16:18.310Z,14.37
2018-03-16T03:18:48.693Z,13.10
2018-03-16T03:21:16.890Z,14.73
2018-03-16T03:23:44.177Z,12.70
2018-03-16T03:26:12.111Z,10.53
2018-03-16T03:28:41.297Z,11.97
2018-03-16T03:31:08.765Z,10.40
2018-03-16T03:33:35.921Z,11.90
2018-03-16T03:36:03.238Z,9.97
2018-03-16T03:38:34.648Z,10.80
2018-03-16T03:41:01.788Z,11.67
2018-03-16T03:43:29.020Z,10.47
2018-03-16T03:45:56.222Z,10.67
2018-03-16T03:48:23.558Z,10.33
2018-03-16T03:50:51.578Z,9.93
2018-03-16T03:53:18.710Z,12.33
2018-03-16T03:55:46.027Z,11.10
2018-03-16T03:58:19.148Z,9.63
2018-03-16T04:00:46.301Z,9.57
2018-03-16T04:03:13.554Z,9.30
2018-03-16T04:05:40.712Z,8.63
2018-03-16T04:08:07.963Z,11.93
2018-03-16T04:10:35.088Z,11.90
2018-03-16T04:13:02.397Z,9.77
2018-03-16T04:15:29.547Z,9.83
2018-03-16T04:18:02.910Z,9.50
2018-03-16T04:20:30.128Z,8.60
2018-03-16T04:22:57.362Z,8.53
2018-03-16T04:25:24.633Z,9.10
2018-03-16T04:27:57.462Z,8.77
2018-03-16T04:30:24.730Z,7.57
2018-03-16T04:32:51.970Z,12.20
2018-03-16T04:35:19.173Z,10.00
2018-03-16T04:37:49.689Z,10.87
2018-03-16T04:40:17.671Z,10.73
2018-03-16T04:42:45.785Z,10.47
2018-03-16T04:45:12.943Z,9.47
2018-03-16T04:47:40.598Z,9.40
2018-03-16T04:50:07.810Z,9.83
2018-03-16T04:52:35.049Z,10.50
2018-03-16T04:55:02.769Z,8.63
2018-03-16T04:57:30.014Z,8.37
2018-03-16T05:00:01.205Z,7.10
2018-03-16T05:02:28.413Z,7.40
2018-03-16T05:04:55.754Z,8.43
2018-03-16T05:07:23.088Z,6.67
2018-03-16T05:09:50.422Z,6.27
2018-03-16T05:12:17.629Z,7.00
2018-03-16T05:14:44.913Z,17.03
2018-03-16T05:17:12.554Z,15.13
2018-03-16T05:19:40.922Z,48.13
2018-03-16T05:22:08.262Z,45.10
2018-03-16T05:24:35.548Z,33.10
2018-03-16T05:27:02.669Z,19.27
2018-03-16T05:29:34.790Z,14.03
2018-03-16T05:32:02.330Z,17.20
2018-03-16T05:34:29.584Z,18.40
2018-03-16T05:45:48.594Z,21.47
2018-03-16T05:48:16.071Z,25.63
2018-03-16T05:50:43.291Z,33.07
2018-03-16T05:53:11.462Z,29.20
2018-03-16T05:55:38.760Z,31.97
2018-03-16T05:58:07.104Z,31.90
2018-03-16T06:00:34.327Z,25.13
2018-03-16T06:03:02.149Z,25.80
2018-03-16T06:05:29.458Z,27.37
2018-03-16T06:07:57.910Z,23.40
2018-03-16T06:10:25.241Z,21.23
2018-03-16T06:12:52.454Z,25.17
2018-03-16T06:15:19.774Z,22.77
2018-03-16T06:17:48.174Z,24.60
2018-03-16T06:20:15.375Z,29.60
2018-03-16T06:22:42.533Z,37.10
2018-03-16T06:25:09.722Z,58.87
2018-03-16T06:27:41.189Z,50.00
2018-03-16T06:30:08.450Z,29.83
2018-03-16T06:32:35.737Z,19.60
2018-03-16T06:35:02.984Z,22.53
2018-03-16T06:37:35.358Z,20.13
2018-03-16T06:40:02.548Z,16.20
2018-03-16T06:42:29.788Z,15.70
2018-03-16T06:44:57.262Z,15.30
2018-03-16T06:47:27.529Z,16.67
2018-03-16T06:49:55.203Z,22.07
2018-03-16T06:52:22.514Z,19.13
2018-03-16T06:54:49.726Z,16.90
2018-03-16T06:57:17.009Z,17.53
2018-03-16T06:59:44.253Z,18.43
2018-03-16T07:02:11.516Z,18.03
2018-03-16T07:04:38.862Z,16.70
2018-03-16T07:07:06.085Z,22.47
2018-03-16T07:09:41.642Z,17.53
2018-03-16T07:12:08.938Z,18.17
2018-03-16T07:14:36.285Z,14.23
2018-03-16T07:17:03.440Z,15.27
2018-03-16T07:19:35.061Z,14.63
2018-03-16T07:22:02.333Z,14.70
2018-03-16T07:24:29.507Z,11.83
2018-03-16T07:26:56.902Z,15.47
2018-03-16T07:29:30.306Z,20.93
2018-03-16T07:31:58.378Z,9.80
2018-03-16T07:34:25.574Z,10.13
2018-03-16T07:36:53.049Z,9.57
2018-03-16T07:39:24.255Z,12.03
2018-03-16T07:41:51.585Z,16.00
2018-03-16T07:44:19.571Z,10.43
2018-03-16T07:46:46.853Z,10.40
2018-03-16T07:49:14.117Z,8.50
2018-03-16T07:51:41.318Z,11.23
2018-03-16T07:54:08.591Z,8.70
2018-03-16T07:56:35.687Z,6.57
2018-03-16T07:59:03.935Z,17.20
2018-03-16T08:01:31.227Z,6.03
2018-03-16T08:03:58.412Z,4.67
2018-03-16T08:06:26.013Z,7.73
2018-03-16T08:08:56.946Z,6.23
2018-03-16T08:11:24.299Z,5.53
2018-03-16T08:13:51.453Z,5.73
2018-03-16T08:16:32.922Z,8.27
2018-03-16T08:19:04.079Z,5.73
2018-03-16T08:21:31.392Z,5.77
2018-03-16T08:23:58.698Z,7.53
2018-03-16T08:26:26.971Z,12.43
2018-03-16T08:28:54.455Z,5.13
2018-03-16T08:31:21.977Z,6.17
2018-03-16T08:33:49.275Z,9.07
2018-03-16T08:36:16.531Z,5.30
2018-03-16T08:38:54.091Z,6.63
2018-03-16T08:41:21.274Z,6.40
2018-03-16T08:43:48.595Z,4.30
2018-03-16T08:46:15.781Z,4.67
2018-03-16T08:48:46.899Z,4.53
2018-03-16T08:51:14.166Z,4.40
2018-03-16T08:53:41.340Z,4.77
2018-03-16T08:56:08.626Z,4.90
2018-03-16T08:58:39.198Z,4.80
2018-03-16T09:01:06.447Z,5.57
2018-03-16T09:03:33.622Z,5.00
2018-03-16T09:06:00.929Z,4.93
2018-03-16T09:08:31.317Z,9.40
2018-03-16T09:10:58.452Z,7.13
2018-03-16T09:13:26.342Z,6.33
2018-03-16T09:15:53.454Z,6.40
2018-03-16T09:18:24.485Z,6.07
2018-03-16T09:20:51.666Z,6.90
2018-03-16T09:23:18.892Z,10.87
2018-03-16T09:25:46.093Z,5.50
2018-03-16T09:28:17.303Z,8.30
2018-03-16T09:30:44.550Z,9.03
2018-03-16T09:33:11.862Z,6.13
2018-03-16T09:35:38.929Z,7.83
2018-03-16T09:38:09.373Z,6.80
2018-03-16T09:40:37.353Z,11.60
2018-03-16T09:43:04.539Z,14.00
2018-03-16T09:45:32.330Z,9.50
2018-03-16T09:48:00.710Z,7.27
2018-03-16T09:50:27.904Z,9.00
2018-03-16T09:52:55.820Z,15.67
2018-03-16T09:55:46.531Z,7.67
2018-03-16T09:58:20.001Z,9.40
2018-03-16T10:00:47.802Z,6.37
2018-03-16T10:03:14.957Z,13.13
2018-03-16T10:05:42.258Z,6.13
2018-03-16T10:08:15.194Z,9.23
2018-03-16T10:10:43.189Z,8.13
2018-03-16T10:13:10.397Z,6.63
2018-03-16T10:15:37.688Z,5.30
2018-03-16T10:18:05.886Z,7.83
2018-03-16T10:20:33.121Z,9.13
2018-03-16T10:23:00.795Z,12.63
2018-03-16T10:25:27.879Z,14.57
2018-03-16T10:27:58.333Z,13.60
2018-03-16T10:30:25.887Z,10.57
2018-03-16T10:32:53.161Z,13.50
2018-03-16T10:35:20.341Z,17.00
2018-03-16T10:37:48.810Z,11.60
2018-03-16T10:40:16.080Z,10.53
2018-03-16T10:42:43.367Z,11.23
2018-03-16T10:45:10.594Z,8.43
2018-03-16T10:47:48.334Z,8.37
2018-03-16T10:50:15.522Z,10.00
2018-03-16T10:52:43.439Z,13.80
2018-03-16T10:55:10.677Z,8.47
2018-03-16T10:57:38.917Z,7.33
2018-03-16T11:00:06.282Z,7.47
2018-03-16T11:02:39.511Z,6.30
2018-03-16T11:08:05.150Z,6.72
2018-03-16T11:10:32.481Z,7.80
2018-03-16T11:12:59.757Z,6.63
2018-03-16T11:15:26.985Z,4.80
2018-03-16T11:17:58.026Z,8.13
2018-03-16T11:20:25.238Z,4.67
2018-03-16T11:22:52.663Z,4.47
2018-03-16T11:25:20.554Z,6.07
2018-03-16T11:27:51.447Z,6.57
2018-03-16T11:30:18.591Z,9.20
2018-03-16T11:32:46.565Z,6.13
2018-03-16T11:35:14.623Z,6.10
2018-03-16T11:37:47.625Z,13.77
2018-03-16T11:40:15.695Z,6.50
2018-03-16T11:42:42.921Z,6.97
2018-03-16T11:45:10.212Z,7.43
2018-03-16T11:47:40.558Z,7.43
2018-03-16T11:50:07.713Z,5.40
2018-03-16T11:52:34.899Z,6.83
2018-03-16T11:55:02.034Z,7.53
2018-03-16T11:57:35.822Z,6.93
2018-03-16T12:00:03.014Z,5.27
2018-03-16T12:02:30.309Z,8.87
2018-03-16T12:04:57.530Z,5.07
2018-03-16T12:07:24.878Z,6.23
2018-03-16T12:09:52.114Z,8.33
2018-03-16T12:12:19.828Z,4.67
2018-03-16T12:14:47.136Z,8.93
2018-03-16T12:17:20.018Z,6.63
2018-03-16T12:19:48.105Z,5.17
2018-03-16T12:22:15.309Z,7.40
2018-03-16T12:24:42.511Z,4.60
2018-03-16T12:27:10.934Z,4.37
2018-03-16T12:29:38.232Z,11.80
2018-03-16T12:32:05.346Z,8.50
2018-03-16T12:34:32.561Z,4.87
2018-03-16T12:37:00.183Z,4.40
2018-03-16T12:39:27.465Z,10.13
2018-03-16T12:41:54.583Z,5.07
2018-03-16T12:44:21.873Z,10.07
2018-03-16T12:46:52.392Z,8.27
2018-03-16T12:49:19.556Z,4.40
2018-03-16T12:51:46.921Z,6.80
2018-03-16T12:54:14.193Z,6.37
2018-03-16T12:56:41.688Z,9.13
2018-03-16T12:59:09.045Z,4.00
2018-03-16T13:01:36.045Z,13.87
2018-03-16T13:04:03.489Z,9.50
2018-03-16T13:06:30.614Z,7.70
2018-03-16T13:08:57.894Z,6.23
2018-03-16T13:11:25.058Z,7.37
2018-03-16T13:13:52.425Z,5.73
2018-03-16T13:16:19.646Z,12.60
2018-03-16T13:18:46.954Z,10.20
2018-03-16T13:21:14.111Z,6.47
2018-03-16T13:23:41.422Z,10.63
2018-03-16T13:26:08.698Z,8.17
2018-03-16T13:28:41.207Z,8.83
2018-03-16T13:31:08.583Z,5.93
2018-03-16T13:33:35.870Z,5.87
2018-03-16T13:36:03.210Z,8.20
2018-03-16T13:38:31.372Z,7.50
2018-03-16T13:40:58.561Z,11.80
2018-03-16T13:43:26.477Z,8.80
2018-03-16T13:45:53.455Z,6.57
2018-03-16T13:48:21.895Z,9.47
2018-03-16T13:50:49.073Z,15.80
2018-03-16T13:53:16.309Z,7.13
2018-03-16T13:55:43.623Z,10.57
2018-03-16T13:58:12.742Z,12.27
2018-03-16T14:00:40.174Z,15.07
2018-03-16T14:03:07.278Z,12.87
2018-03-16T14:05:34.397Z,12.40
2018-03-16T14:08:04.811Z,8.00
2018-03-16T14:10:32.777Z,16.87
2018-03-16T14:12:59.995Z,17.50
2018-03-16T14:15:27.238Z,13.40
2018-03-16T14:17:59.159Z,13.70
2018-03-16T14:20:26.562Z,6.23
2018-03-16T14:22:54.594Z,8.13
2018-03-16T14:25:21.943Z,7.67
2018-03-16T14:27:55.491Z,8.70
2018-03-16T14:30:22.601Z,8.63
2018-03-16T14:32:49.810Z,7.97
2018-03-16T14:35:16.938Z,10.23
2018-03-16T14:37:45.391Z,11.50
2018-03-16T14:40:12.620Z,10.93
2018-03-16T14:42:39.951Z,8.77
2018-03-16T14:45:07.182Z,11.13
2018-03-16T14:47:35.463Z,17.67
2018-03-16T14:50:02.795Z,13.80
2018-03-16T14:52:30.022Z,16.77
2018-03-16T14:54:57.221Z,17.53
2018-03-16T14:57:28.024Z,21.13
2018-03-16T14:59:55.374Z,14.03
2018-03-16T15:02:22.647Z,29.07
2018-03-16T15:04:49.974Z,18.93
2018-03-16T15:07:17.330Z,14.97
2018-03-16T15:09:44.613Z,10.10
2018-03-16T15:12:12.614Z,12.10
2018-03-16T15:14:39.770Z,13.27
2018-03-16T15:17:10.924Z,22.07
2018-03-16T15:19:38.160Z,19.80
2018-03-16T15:22:05.449Z,15.50
2018-03-16T15:24:33.370Z,10.17
2018-03-16T15:27:04.539Z,9.83
2018-03-16T15:29:31.811Z,16.63
2018-03-16T15:31:58.931Z,11.17
2018-03-16T15:34:26.187Z,11.43
2018-03-16T15:36:53.279Z,16.87
2018-03-16T15:39:20.611Z,11.43
2018-03-16T15:41:47.946Z,14.73
2018-03-16T15:44:15.171Z,14.60
2018-03-16T15:46:45.422Z,21.23
2018-03-16T15:49:13.439Z,14.73
2018-03-16T15:51:40.611Z,18.33
2018-03-16T15:54:07.855Z,15.77
2018-03-16T15:56:35.913Z,14.83
2018-03-16T15:59:03.167Z,11.23
2018-03-16T16:01:30.284Z,17.47
2018-03-16T16:03:57.426Z,16.67
2018-03-16T16:06:28.539Z,11.97
2018-03-16T16:08:55.770Z,13.07
2018-03-16T16:11:25.958Z,13.40
2018-03-16T16:13:53.198Z,13.47
2018-03-16T16:16:21.631Z,17.90
2018-03-16T16:18:48.942Z,27.10
2018-03-16T16:21:16.859Z,11.87
2018-03-16T16:23:44.055Z,17.13
2018-03-16T16:26:16.024Z,12.60
2018-03-16T16:28:43.308Z,13.07
2018-03-16T16:31:10.573Z,13.33
2018-03-16T16:33:37.943Z,15.97
2018-03-16T16:36:06.450Z,22.50
2018-03-16T16:38:33.750Z,24.40
2018-03-16T16:41:01.752Z,32.90
2018-03-16T16:43:29.075Z,16.00
2018-03-16T16:45:56.336Z,19.33
2018-03-16T16:48:24.434Z,20.40
2018-03-16T16:50:51.669Z,20.27
2018-03-16T16:53:19.010Z,17.00
2018-03-16T16:55:47.920Z,63.00
2018-03-16T16:58:15.184Z,36.47
2018-03-16T17:00:42.433Z,25.13
2018-03-16T17:03:09.766Z,17.60
2018-03-16T17:05:37.062Z,23.63
2018-03-16T17:08:08.232Z,18.87
2018-03-16T17:10:35.391Z,43.10
2018-03-16T17:13:02.685Z,42.67
2018-03-16T17:15:29.947Z,43.63
2018-03-16T17:18:04.973Z,45.97
2018-03-16T17:20:32.329Z,25.90
2018-03-16T17:22:59.602Z,36.67
2018-03-16T17:25:26.871Z,19.73
2018-03-16T17:27:55.339Z,37.57
2018-03-16T17:33:15.197Z,28.55
2018-03-16T17:35:43.553Z,22.90
2018-03-16T17:38:10.996Z,22.27
2018-03-16T17:40:39.047Z,24.00
2018-03-16T17:43:06.486Z,22.33
2018-03-16T17:45:33.887Z,23.03
2018-03-16T17:48:01.243Z,17.40
2018-03-16T17:50:29.292Z,17.73
2018-03-16T17:52:56.521Z,16.83
2018-03-16T17:55:27.172Z,16.53
2018-03-16T17:57:58.686Z,12.47
2018-03-16T18:00:25.898Z,19.77
2018-03-16T18:02:53.181Z,13.10
2018-03-16T18:05:21.195Z,13.97
2018-03-16T18:07:53.138Z,17.70
2018-03-16T18:10:21.101Z,13.77
2018-03-16T18:12:49.102Z,15.47
2018-03-16T18:15:16.210Z,13.97
2018-03-16T18:17:44.407Z,16.87
2018-03-16T18:20:12.335Z,20.17
2018-03-16T18:22:40.050Z,17.40
2018-03-16T18:25:07.169Z,12.87
2018-03-16T18:27:37.988Z,18.00
2018-03-16T18:30:05.769Z,20.67
2018-03-16T18:32:33.025Z,17.00
2018-03-16T18:35:00.332Z,16.50
2018-03-16T18:37:32.493Z,17.53
2018-03-16T18:39:59.724Z,19.80
2018-03-16T18:42:28.463Z,13.87
2018-03-16T18:44:55.882Z,19.13
2018-03-16T18:47:23.375Z,27.37
2018-03-16T18:49:50.574Z,26.37
2018-03-16T18:52:17.887Z,21.90
2018-03-16T18:54:45.203Z,15.53
2018-03-16T18:57:16.275Z,19.40
2018-03-16T18:59:43.586Z,19.03
2018-03-16T19:02:11.916Z,15.10
2018-03-16T19:04:39.115Z,16.70
2018-03-16T19:07:10.901Z,14.37
2018-03-16T19:09:38.398Z,20.60
2018-03-16T19:12:05.579Z,21.03
2018-03-16T19:14:32.975Z,25.93
2018-03-16T19:17:07.401Z,32.53
2018-03-16T19:19:34.632Z,23.37
2018-03-16T19:22:02.315Z,25.93
2018-03-16T19:24:29.688Z,25.80
2018-03-16T19:27:00.246Z,24.07
2018-03-16T19:29:27.607Z,25.43
2018-03-16T19:31:55.142Z,36.03
2018-03-16T19:34:22.355Z,31.43
2018-03-16T19:36:52.767Z,37.53
2018-03-16T19:39:20.022Z,31.50
2018-03-16T19:41:47.168Z,46.33
2018-03-16T19:44:14.580Z,54.50
2018-03-16T19:46:43.499Z,37.87
2018-03-16T19:49:10.927Z,46.00
2018-03-16T19:51:38.128Z,39.93
2018-03-16T19:54:09.100Z,31.77
2018-03-16T19:56:39.788Z,25.00
2018-03-16T19:59:07.609Z,17.63
2018-03-16T20:01:35.082Z,18.30
2018-03-16T20:04:02.332Z,18.60
2018-03-16T20:06:37.327Z,11.90
2018-03-16T20:09:05.124Z,15.03
2018-03-16T20:11:32.432Z,30.40
2018-03-16T20:13:59.735Z,13.07
2018-03-16T20:16:28.668Z,10.83
2018-03-16T20:18:56.021Z,8.50
2018-03-16T20:21:23.672Z,12.50
2018-03-16T20:23:51.029Z,10.07
2018-03-16T20:26:23.559Z,10.90
2018-03-16T20:28:50.865Z,10.43
2018-03-16T20:31:18.075Z,10.43
2018-03-16T20:33:45.290Z,11.53
2018-03-16T20:36:12.943Z,10.87
2018-03-16T20:38:40.191Z,9.67
2018-03-16T20:41:07.555Z,13.77
2018-03-16T20:43:35.057Z,18.80
2018-03-16T20:46:06.085Z,6.93
2018-03-16T20:48:33.358Z,6.03
2018-03-16T20:51:01.524Z,6.40
2018-03-16T20:53:28.856Z,9.10
2018-03-16T20:56:01.870Z,10.23
2018-03-16T20:58:29.780Z,7.37
2018-03-16T21:00:57.359Z,6.30
2018-03-16T21:03:24.623Z,9.93
2018-03-16T21:05:56.208Z,9.47
2018-03-16T21:08:23.502Z,12.80
2018-03-16T21:10:50.828Z,19.93
2018-03-16T21:13:18.305Z,22.47
2018-03-16T21:15:46.842Z,16.13
2018-03-16T21:18:13.992Z,19.33
2018-03-16T21:20:41.246Z,48.53
2018-03-16T21:23:08.466Z,29.83
2018-03-16T21:25:36.882Z,16.63
2018-03-16T21:28:04.131Z,15.57
2018-03-16T21:30:32.765Z,12.40
2018-03-16T21:33:00.182Z,14.60
2018-03-16T21:35:34.982Z,14.90
2018-03-16T21:38:02.352Z,15.27
2018-03-16T21:40:29.632Z,12.03
2018-03-16T21:42:56.991Z,13.80
2018-03-16T21:45:28.137Z,14.47
2018-03-16T21:47:55.511Z,18.10
2018-03-16T21:50:22.644Z,15.07
2018-03-16T21:52:49.783Z,14.93
2018-03-16T21:55:22.751Z,7.97
2018-03-16T21:57:49.928Z,11.27
2018-03-16T22:00:17.223Z,9.63
2018-03-16T22:02:44.394Z,10.97
2018-03-16T22:05:11.683Z,12.37
2018-03-16T22:07:38.887Z,22.47
2018-03-16T22:10:06.113Z,33.60
2018-03-16T22:12:33.405Z,32.37
2018-03-16T22:15:04.330Z,25.33
2018-03-16T22:17:31.509Z,14.23
2018-03-16T22:19:58.740Z,16.77
2018-03-16T22:22:26.205Z,13.20
2018-03-16T22:24:53.429Z,14.10
2018-03-16T22:27:24.750Z,8.90
2018-03-16T22:29:52.163Z,15.97
2018-03-16T22:32:19.317Z,13.77
2018-03-16T22:34:46.638Z,15.00
2018-03-16T22:37:14.449Z,14.27
2018-03-16T22:39:41.763Z,18.30
2018-03-16T22:42:08.934Z,29.73
2018-03-16T22:44:36.220Z,12.13
2018-03-16T22:47:04.451Z,13.40
2018-03-16T22:49:31.703Z,13.40
2018-03-16T22:51:59.048Z,12.73
2018-03-16T22:54:26.227Z,12.63
2018-03-16T22:56:54.619Z,11.23
2018-03-16T22:59:21.839Z,16.90
2018-03-16T23:01:49.162Z,15.87
2018-03-16T23:04:17.215Z,23.37
2018-03-16T23:06:45.378Z,20.97
2018-03-16T23:09:12.715Z,10.93
2018-03-16T23:11:39.850Z,13.00
2018-03-16T23:14:07.158Z,13.93
2018-03-16T23:16:40.770Z,16.43
2018-03-16T23:19:08.546Z,14.10
2018-03-16T23:21:35.853Z,11.93
2018-03-16T23:24:03.072Z,17.73
2018-03-16T23:26:33.949Z,18.20
2018-03-16T23:29:01.042Z,14.20
2018-03-16T23:31:28.667Z,12.97
2018-03-16T23:33:55.717Z,20.67
2018-03-16T23:36:28.154Z,27.43
2018-03-16T23:38:55.340Z,17.37
2018-03-16T23:41:22.634Z,13.10
2018-03-16T23:43:50.593Z,14.50
2018-03-16T23:46:18.907Z,10.63
2018-03-16T23:48:46.186Z,10.53
2018-03-16T23:51:13.537Z,14.87
2018-03-16T23:53:41.475Z,11.80
2018-03-16T23:56:10.614Z,13.83
2018-03-16T23:58:37.854Z,11.70
